sensor_id;sensor_type;location;lat;lon;timestamp;temperature;humidity
5796;DHT22;2924;51.458;7.046;2023-01-15T00:02:05;5.30;99.90
5796;DHT22;2924;51.458;7.046;2023-01-15T00:04:31;5.30;99.90
5796;DHT22;2924;51.458;7.046;2023-01-15T00:06:56;5.30;99.90
5796;DHT22;2924;51.458;7.046;2023-01-15T00:09:22;5.30;99.90
5796;DHT22;2924;51.458;7.046;2023-01-15T00:11:47;5.30;99.90
5796;DHT22;2924;51.458;7.046;2023-01-15T00:14:13;5.30;99.90
5796;DHT22;2924;51.458;7.046;2023-01-15T00:16:39;5.30;99.90
5796;DHT22;2924;51.458;7.046;2023-01-15T00:19:05;5.20;99.90
5796;DHT22;2924;51.458;7.046;2023-01-15T00:21:34;5.30;99.90
5796;DHT22;2924;51.458;7.046;2023-01-15T00:24:00;5.30;99.90
5796;DHT22;2924;51.458;7.046;2023-01-15T00:26:44;5.30;99.90
5796;DHT22;2924;51.458;7.046;2023-01-15T00:29:28;5.20;99.90
5796;DHT22;2924;51.458;7.046;2023-01-15T00:32:03;5.20;99.90
5796;DHT22;2924;51.458;7.046;2023-01-15T00:34:29;5.20;99.90
5796;DHT22;2924;51.458;7.046;2023-01-15T00:36:55;5.30;99.90
5796;DHT22;2924;51.458;7.046;2023-01-15T00:39:21;5.20;99.90
5796;DHT22;2924;51.458;7.046;2023-01-15T00:41:48;5.30;99.90
5796;DHT22;2924;51.458;7.046;2023-01-15T00:44:15;5.20;99.90
5796;DHT22;2924;51.458;7.046;2023-01-15T00:46:40;5.20;99.90
5796;DHT22;2924;51.458;7.046;2023-01-15T00:49:07;5.20;99.90
5796;DHT22;2924;51.458;7.046;2023-01-15T00:51:33;5.20;99.90
5796;DHT22;2924;51.458;7.046;2023-01-15T00:53:59;5.20;99.90
5796;DHT22;2924;51.458;7.046;2023-01-15T00:56:25;5.20;99.90
5796;DHT22;2924;51.458;7.046;2023-01-15T00:58:51;5.20;99.90
5796;DHT22;2924;51.458;7.046;2023-01-15T01:01:16;5.20;99.90
5796;DHT22;2924;51.458;7.046;2023-01-15T01:03:42;5.20;99.90
5796;DHT22;2924;51.458;7.046;2023-01-15T01:06:14;5.20;99.90
5796;DHT22;2924;51.458;7.046;2023-01-15T01:08:40;5.20;99.90
5796;DHT22;2924;51.458;7.046;2023-01-15T01:11:08;5.20;99.90
5796;DHT22;2924;51.458;7.046;2023-01-15T01:13:35;5.20;99.90
5796;DHT22;2924;51.458;7.046;2023-01-15T01:16:01;5.20;99.90
5796;DHT22;2924;51.458;7.046;2023-01-15T01:18:27;5.20;99.90
5796;DHT22;2924;51.458;7.046;2023-01-15T01:20:53;5.20;99.90
5796;DHT22;2924;51.458;7.046;2023-01-15T01:23:19;5.30;99.90
5796;DHT22;2924;51.458;7.046;2023-01-15T01:25:45;5.30;99.90
5796;DHT22;2924;51.458;7.046;2023-01-15T01:28:10;5.30;99.90
5796;DHT22;2924;51.458;7.046;2023-01-15T01:30:39;5.30;99.90
5796;DHT22;2924;51.458;7.046;2023-01-15T01:33:05;5.30;99.90
5796;DHT22;2924;51.458;7.046;2023-01-15T01:35:31;5.30;99.90
5796;DHT22;2924;51.458;7.046;2023-01-15T01:37:56;5.30;99.90
5796;DHT22;2924;51.458;7.046;2023-01-15T01:40:22;5.30;99.90
5796;DHT22;2924;51.458;7.046;2023-01-15T01:42:48;5.40;99.90
5796;DHT22;2924;51.458;7.046;2023-01-15T01:47:49;5.50;99.90
5796;DHT22;2924;51.458;7.046;2023-01-15T01:50:15;5.50;99.90
5796;DHT22;2924;51.458;7.046;2023-01-15T01:52:46;5.40;99.90
5796;DHT22;2924;51.458;7.046;2023-01-15T01:55:15;5.50;99.90
5796;DHT22;2924;51.458;7.046;2023-01-15T01:57:42;5.50;99.90
5796;DHT22;2924;51.458;7.046;2023-01-15T02:00:09;5.50;99.90
5796;DHT22;2924;51.458;7.046;2023-01-15T02:02:37;5.40;99.90
5796;DHT22;2924;51.458;7.046;2023-01-15T02:05:03;5.40;99.90
5796;DHT22;2924;51.458;7.046;2023-01-15T02:07:30;5.40;99.90
5796;DHT22;2924;51.458;7.046;2023-01-15T02:09:58;5.40;99.90
5796;DHT22;2924;51.458;7.046;2023-01-15T02:12:29;5.40;99.90
5796;DHT22;2924;51.458;7.046;2023-01-15T02:17:45;5.50;99.90
5796;DHT22;2924;51.458;7.046;2023-01-15T02:20:24;5.50;99.90
5796;DHT22;2924;51.458;7.046;2023-01-15T02:23:10;5.50;99.90
5796;DHT22;2924;51.458;7.046;2023-01-15T02:28:33;5.40;99.90
5796;DHT22;2924;51.458;7.046;2023-01-15T02:31:22;5.40;99.90
5796;DHT22;2924;51.458;7.046;2023-01-15T02:36:31;5.50;99.90
5796;DHT22;2924;51.458;7.046;2023-01-15T02:39:00;5.40;99.90
5796;DHT22;2924;51.458;7.046;2023-01-15T02:41:34;5.50;99.90
5796;DHT22;2924;51.458;7.046;2023-01-15T02:44:04;5.50;99.90
5796;DHT22;2924;51.458;7.046;2023-01-15T02:46:34;5.50;99.90
5796;DHT22;2924;51.458;7.046;2023-01-15T02:49:02;5.60;99.90
5796;DHT22;2924;51.458;7.046;2023-01-15T02:51:36;5.60;99.90
5796;DHT22;2924;51.458;7.046;2023-01-15T02:54:05;5.50;99.90
5796;DHT22;2924;51.458;7.046;2023-01-15T02:56:33;5.50;99.90
5796;DHT22;2924;51.458;7.046;2023-01-15T02:59:05;5.50;99.90
5796;DHT22;2924;51.458;7.046;2023-01-15T03:01:44;5.50;99.90
5796;DHT22;2924;51.458;7.046;2023-01-15T03:04:28;5.50;99.90
5796;DHT22;2924;51.458;7.046;2023-01-15T03:09:29;5.60;99.90
5796;DHT22;2924;51.458;7.046;2023-01-15T03:12:06;5.50;99.90
5796;DHT22;2924;51.458;7.046;2023-01-15T03:17:23;5.50;99.90
5796;DHT22;2924;51.458;7.046;2023-01-15T03:19:55;5.50;99.90
5796;DHT22;2924;51.458;7.046;2023-01-15T03:22:24;5.50;99.90
5796;DHT22;2924;51.458;7.046;2023-01-15T03:24:58;5.50;99.90
5796;DHT22;2924;51.458;7.046;2023-01-15T03:27:25;5.40;99.90
5796;DHT22;2924;51.458;7.046;2023-01-15T03:29:54;5.50;99.90
5796;DHT22;2924;51.458;7.046;2023-01-15T03:32:22;5.50;99.90
5796;DHT22;2924;51.458;7.046;2023-01-15T03:34:53;5.50;99.90
5796;DHT22;2924;51.458;7.046;2023-01-15T03:37:21;5.60;99.90
5796;DHT22;2924;51.458;7.046;2023-01-15T03:39:48;5.60;99.90
5796;DHT22;2924;51.458;7.046;2023-01-15T03:45:38;5.50;99.90
5796;DHT22;2924;51.458;7.046;2023-01-15T03:48:30;5.50;99.90
5796;DHT22;2924;51.458;7.046;2023-01-15T03:51:22;5.60;99.90
5796;DHT22;2924;51.458;7.046;2023-01-15T03:53:53;5.50;99.90
5796;DHT22;2924;51.458;7.046;2023-01-15T03:56:30;5.50;99.90
5796;DHT22;2924;51.458;7.046;2023-01-15T03:59:16;5.50;99.90
5796;DHT22;2924;51.458;7.046;2023-01-15T04:01:44;5.50;99.90
5796;DHT22;2924;51.458;7.046;2023-01-15T04:04:12;5.50;99.90
5796;DHT22;2924;51.458;7.046;2023-01-15T04:06:41;5.50;99.90
5796;DHT22;2924;51.458;7.046;2023-01-15T04:09:10;5.50;99.90
5796;DHT22;2924;51.458;7.046;2023-01-15T04:11:37;5.50;99.90
5796;DHT22;2924;51.458;7.046;2023-01-15T04:14:03;5.50;99.90
5796;DHT22;2924;51.458;7.046;2023-01-15T04:16:30;5.50;99.90
5796;DHT22;2924;51.458;7.046;2023-01-15T04:18:57;5.50;99.90
5796;DHT22;2924;51.458;7.046;2023-01-15T04:21:22;5.50;99.90
5796;DHT22;2924;51.458;7.046;2023-01-15T04:23:49;5.60;99.90
5796;DHT22;2924;51.458;7.046;2023-01-15T04:26:15;5.50;99.90
5796;DHT22;2924;51.458;7.046;2023-01-15T04:28:41;5.60;99.90
5796;DHT22;2924;51.458;7.046;2023-01-15T04:31:07;5.60;99.90
5796;DHT22;2924;51.458;7.046;2023-01-15T04:33:33;5.60;99.90
5796;DHT22;2924;51.458;7.046;2023-01-15T04:35:59;5.60;99.90
5796;DHT22;2924;51.458;7.046;2023-01-15T04:38:25;5.60;99.90
5796;DHT22;2924;51.458;7.046;2023-01-15T04:40:51;5.60;99.90
5796;DHT22;2924;51.458;7.046;2023-01-15T04:43:35;5.70;99.90
5796;DHT22;2924;51.458;7.046;2023-01-15T04:46:21;5.70;99.90
5796;DHT22;2924;51.458;7.046;2023-01-15T04:48:47;5.60;99.90
5796;DHT22;2924;51.458;7.046;2023-01-15T04:51:12;5.60;99.90
5796;DHT22;2924;51.458;7.046;2023-01-15T04:53:38;5.60;99.90
5796;DHT22;2924;51.458;7.046;2023-01-15T04:56:04;5.50;99.90
5796;DHT22;2924;51.458;7.046;2023-01-15T04:58:30;5.50;99.90
5796;DHT22;2924;51.458;7.046;2023-01-15T05:00:56;5.50;99.90
5796;DHT22;2924;51.458;7.046;2023-01-15T05:03:22;5.50;99.90
5796;DHT22;2924;51.458;7.046;2023-01-15T05:05:48;5.50;99.90
5796;DHT22;2924;51.458;7.046;2023-01-15T05:08:15;5.50;99.90
5796;DHT22;2924;51.458;7.046;2023-01-15T05:10:44;5.50;99.90
5796;DHT22;2924;51.458;7.046;2023-01-15T05:13:09;5.50;99.90
5796;DHT22;2924;51.458;7.046;2023-01-15T05:15:35;5.50;99.90
5796;DHT22;2924;51.458;7.046;2023-01-15T05:18:03;5.50;99.90
5796;DHT22;2924;51.458;7.046;2023-01-15T05:20:29;5.50;99.90
5796;DHT22;2924;51.458;7.046;2023-01-15T05:22:54;5.50;99.90
5796;DHT22;2924;51.458;7.046;2023-01-15T05:25:20;5.60;99.90
5796;DHT22;2924;51.458;7.046;2023-01-15T05:27:45;5.50;99.90
5796;DHT22;2924;51.458;7.046;2023-01-15T05:30:11;5.50;99.90
5796;DHT22;2924;51.458;7.046;2023-01-15T05:32:37;5.60;99.90
5796;DHT22;2924;51.458;7.046;2023-01-15T05:35:03;5.70;99.90
5796;DHT22;2924;51.458;7.046;2023-01-15T05:37:29;5.60;99.90
5796;DHT22;2924;51.458;7.046;2023-01-15T05:39:55;5.60;99.90
5796;DHT22;2924;51.458;7.046;2023-01-15T05:42:21;5.70;99.90
5796;DHT22;2924;51.458;7.046;2023-01-15T05:44:46;5.70;99.90
5796;DHT22;2924;51.458;7.046;2023-01-15T05:47:12;5.70;99.90
5796;DHT22;2924;51.458;7.046;2023-01-15T05:49:39;5.70;99.90
5796;DHT22;2924;51.458;7.046;2023-01-15T05:52:04;5.70;99.90
5796;DHT22;2924;51.458;7.046;2023-01-15T05:54:34;5.70;99.90
5796;DHT22;2924;51.458;7.046;2023-01-15T05:57:00;5.70;99.90
5796;DHT22;2924;51.458;7.046;2023-01-15T05:59:27;5.70;99.90
5796;DHT22;2924;51.458;7.046;2023-01-15T06:01:54;5.70;99.90
5796;DHT22;2924;51.458;7.046;2023-01-15T06:04:20;5.80;99.90
5796;DHT22;2924;51.458;7.046;2023-01-15T06:06:48;5.70;99.90
5796;DHT22;2924;51.458;7.046;2023-01-15T06:09:14;5.80;99.90
5796;DHT22;2924;51.458;7.046;2023-01-15T06:11:40;5.80;99.90
5796;DHT22;2924;51.458;7.046;2023-01-15T06:14:06;5.70;99.90
5796;DHT22;2924;51.458;7.046;2023-01-15T06:16:32;5.70;99.90
5796;DHT22;2924;51.458;7.046;2023-01-15T06:19:02;5.80;99.90
5796;DHT22;2924;51.458;7.046;2023-01-15T06:21:29;5.80;99.90
5796;DHT22;2924;51.458;7.046;2023-01-15T06:23:55;5.80;99.90
5796;DHT22;2924;51.458;7.046;2023-01-15T06:26:21;5.80;99.90
5796;DHT22;2924;51.458;7.046;2023-01-15T06:28:46;5.90;99.90
5796;DHT22;2924;51.458;7.046;2023-01-15T06:31:14;5.90;99.90
5796;DHT22;2924;51.458;7.046;2023-01-15T06:33:41;5.90;99.90
5796;DHT22;2924;51.458;7.046;2023-01-15T06:36:10;5.90;99.90
5796;DHT22;2924;51.458;7.046;2023-01-15T06:38:36;5.80;99.90
5796;DHT22;2924;51.458;7.046;2023-01-15T06:41:04;5.90;99.90
5796;DHT22;2924;51.458;7.046;2023-01-15T06:43:50;5.90;99.90
5796;DHT22;2924;51.458;7.046;2023-01-15T06:46:34;5.90;99.90
5796;DHT22;2924;51.458;7.046;2023-01-15T06:49:18;5.90;99.90
5796;DHT22;2924;51.458;7.046;2023-01-15T06:51:44;5.90;99.90
5796;DHT22;2924;51.458;7.046;2023-01-15T06:54:10;5.90;99.90
5796;DHT22;2924;51.458;7.046;2023-01-15T06:56:35;5.90;99.90
5796;DHT22;2924;51.458;7.046;2023-01-15T06:59:01;5.90;99.90
5796;DHT22;2924;51.458;7.046;2023-01-15T07:01:27;5.80;99.90
5796;DHT22;2924;51.458;7.046;2023-01-15T07:03:55;5.90;99.90
5796;DHT22;2924;51.458;7.046;2023-01-15T07:06:21;5.90;99.90
5796;DHT22;2924;51.458;7.046;2023-01-15T07:08:47;5.90;99.90
5796;DHT22;2924;51.458;7.046;2023-01-15T07:11:12;5.90;99.90
5796;DHT22;2924;51.458;7.046;2023-01-15T07:13:39;5.90;99.90
5796;DHT22;2924;51.458;7.046;2023-01-15T07:16:04;5.90;99.90
5796;DHT22;2924;51.458;7.046;2023-01-15T07:18:32;5.80;99.90
5796;DHT22;2924;51.458;7.046;2023-01-15T07:20:58;5.80;99.90
5796;DHT22;2924;51.458;7.046;2023-01-15T07:23:25;5.80;99.90
5796;DHT22;2924;51.458;7.046;2023-01-15T07:25:52;5.80;99.90
5796;DHT22;2924;51.458;7.046;2023-01-15T07:28:19;5.90;99.90
5796;DHT22;2924;51.458;7.046;2023-01-15T07:30:45;5.80;99.90
5796;DHT22;2924;51.458;7.046;2023-01-15T07:33:10;5.80;99.90
5796;DHT22;2924;51.458;7.046;2023-01-15T07:35:37;5.80;99.90
5796;DHT22;2924;51.458;7.046;2023-01-15T07:38:03;5.80;99.90
5796;DHT22;2924;51.458;7.046;2023-01-15T07:40:28;5.70;99.90
5796;DHT22;2924;51.458;7.046;2023-01-15T07:42:54;5.70;99.90
5796;DHT22;2924;51.458;7.046;2023-01-15T07:45:39;5.70;99.90
5796;DHT22;2924;51.458;7.046;2023-01-15T07:48:24;5.70;99.90
5796;DHT22;2924;51.458;7.046;2023-01-15T07:51:09;5.70;99.90
5796;DHT22;2924;51.458;7.046;2023-01-15T07:53:35;5.60;99.90
5796;DHT22;2924;51.458;7.046;2023-01-15T07:56:00;5.60;99.90
5796;DHT22;2924;51.458;7.046;2023-01-15T07:58:26;5.60;99.90
5796;DHT22;2924;51.458;7.046;2023-01-15T08:00:52;5.60;99.90
5796;DHT22;2924;51.458;7.046;2023-01-15T08:03:17;5.70;99.90
5796;DHT22;2924;51.458;7.046;2023-01-15T08:05:43;5.70;99.90
5796;DHT22;2924;51.458;7.046;2023-01-15T08:08:16;5.70;99.90
5796;DHT22;2924;51.458;7.046;2023-01-15T08:10:42;5.70;99.90
5796;DHT22;2924;51.458;7.046;2023-01-15T08:13:26;5.70;99.90
5796;DHT22;2924;51.458;7.046;2023-01-15T08:16:11;5.80;99.90
5796;DHT22;2924;51.458;7.046;2023-01-15T08:18:37;5.80;99.90
5796;DHT22;2924;51.458;7.046;2023-01-15T08:21:03;5.80;99.90
5796;DHT22;2924;51.458;7.046;2023-01-15T08:23:29;5.90;99.90
5796;DHT22;2924;51.458;7.046;2023-01-15T08:25:58;5.80;99.90
5796;DHT22;2924;51.458;7.046;2023-01-15T08:28:24;5.90;99.90
5796;DHT22;2924;51.458;7.046;2023-01-15T08:30:50;5.80;99.90
5796;DHT22;2924;51.458;7.046;2023-01-15T08:33:15;5.70;99.90
5796;DHT22;2924;51.458;7.046;2023-01-15T08:35:41;5.80;99.90
5796;DHT22;2924;51.458;7.046;2023-01-15T08:38:07;5.80;99.90
5796;DHT22;2924;51.458;7.046;2023-01-15T08:40:33;5.80;99.90
5796;DHT22;2924;51.458;7.046;2023-01-15T08:43:01;5.80;99.90
5796;DHT22;2924;51.458;7.046;2023-01-15T08:45:26;5.80;99.90
5796;DHT22;2924;51.458;7.046;2023-01-15T08:47:55;5.80;99.90
5796;DHT22;2924;51.458;7.046;2023-01-15T08:50:24;5.80;99.90
5796;DHT22;2924;51.458;7.046;2023-01-15T08:52:50;5.80;99.90
5796;DHT22;2924;51.458;7.046;2023-01-15T08:55:16;5.80;99.90
5796;DHT22;2924;51.458;7.046;2023-01-15T08:57:41;5.80;99.90
5796;DHT22;2924;51.458;7.046;2023-01-15T09:00:09;5.70;99.90
5796;DHT22;2924;51.458;7.046;2023-01-15T09:02:35;5.60;99.90
5796;DHT22;2924;51.458;7.046;2023-01-15T09:05:00;5.60;99.90
5796;DHT22;2924;51.458;7.046;2023-01-15T09:07:26;5.50;99.90
5796;DHT22;2924;51.458;7.046;2023-01-15T09:09:52;5.50;99.90
5796;DHT22;2924;51.458;7.046;2023-01-15T09:12:18;5.40;99.90
5796;DHT22;2924;51.458;7.046;2023-01-15T09:14:44;5.50;99.90
5796;DHT22;2924;51.458;7.046;2023-01-15T09:17:10;5.40;99.90
5796;DHT22;2924;51.458;7.046;2023-01-15T09:19:35;5.40;99.90
5796;DHT22;2924;51.458;7.046;2023-01-15T09:22:01;5.30;99.90
5796;DHT22;2924;51.458;7.046;2023-01-15T09:24:26;5.30;99.90
5796;DHT22;2924;51.458;7.046;2023-01-15T09:26:52;5.30;99.90
5796;DHT22;2924;51.458;7.046;2023-01-15T09:29:18;5.20;99.90
5796;DHT22;2924;51.458;7.046;2023-01-15T09:31:44;5.30;99.90
5796;DHT22;2924;51.458;7.046;2023-01-15T09:34:09;5.70;99.90
5796;DHT22;2924;51.458;7.046;2023-01-15T09:36:36;6.30;99.90
5796;DHT22;2924;51.458;7.046;2023-01-15T09:39:02;6.50;99.90
5796;DHT22;2924;51.458;7.046;2023-01-15T09:42:01;6.50;99.90
5796;DHT22;2924;51.458;7.046;2023-01-15T09:44:32;6.40;99.90
5796;DHT22;2924;51.458;7.046;2023-01-15T09:47:20;6.30;99.90
5796;DHT22;2924;51.458;7.046;2023-01-15T09:55:15;6.70;99.90
5796;DHT22;2924;51.458;7.046;2023-01-15T09:57:43;7.10;99.90
5796;DHT22;2924;51.458;7.046;2023-01-15T10:00:19;7.10;99.90
5796;DHT22;2924;51.458;7.046;2023-01-15T10:02:57;6.80;99.90
5796;DHT22;2924;51.458;7.046;2023-01-15T10:10:46;6.70;99.90
5796;DHT22;2924;51.458;7.046;2023-01-15T10:13:30;6.60;99.90
5796;DHT22;2924;51.458;7.046;2023-01-15T10:15:58;6.50;99.90
5796;DHT22;2924;51.458;7.046;2023-01-15T10:18:26;6.50;99.90
5796;DHT22;2924;51.458;7.046;2023-01-15T10:24:00;6.50;99.90
5796;DHT22;2924;51.458;7.046;2023-01-15T10:26:36;6.60;99.90
5796;DHT22;2924;51.458;7.046;2023-01-15T10:29:14;6.60;99.90
5796;DHT22;2924;51.458;7.046;2023-01-15T10:37:08;7.20;99.90
5796;DHT22;2924;51.458;7.046;2023-01-15T10:39:40;7.10;99.90
5796;DHT22;2924;51.458;7.046;2023-01-15T10:42:29;7.10;99.90
5796;DHT22;2924;51.458;7.046;2023-01-15T10:45:22;7.40;99.90
5796;DHT22;2924;51.458;7.046;2023-01-15T10:47:54;7.70;99.90
5796;DHT22;2924;51.458;7.046;2023-01-15T10:50:25;8.10;99.90
5796;DHT22;2924;51.458;7.046;2023-01-15T10:55:44;8.50;99.90
5796;DHT22;2924;51.458;7.046;2023-01-15T11:00:39;8.40;99.90
5796;DHT22;2924;51.458;7.046;2023-01-15T11:03:15;8.20;99.90
5796;DHT22;2924;51.458;7.046;2023-01-15T11:05:44;8.00;99.90
5796;DHT22;2924;51.458;7.046;2023-01-15T11:08:25;8.00;99.90
5796;DHT22;2924;51.458;7.046;2023-01-15T11:11:17;7.90;99.90
5796;DHT22;2924;51.458;7.046;2023-01-15T11:13:54;7.80;99.90
5796;DHT22;2924;51.458;7.046;2023-01-15T11:16:40;7.60;99.90
5796;DHT22;2924;51.458;7.046;2023-01-15T11:19:33;7.50;99.90
5796;DHT22;2924;51.458;7.046;2023-01-15T11:22:20;7.40;99.90
5796;DHT22;2924;51.458;7.046;2023-01-15T11:24:52;7.30;99.90
5796;DHT22;2924;51.458;7.046;2023-01-15T11:27:38;7.10;99.90
5796;DHT22;2924;51.458;7.046;2023-01-15T11:30:23;7.00;99.90
5796;DHT22;2924;51.458;7.046;2023-01-15T11:32:55;7.00;99.90
5796;DHT22;2924;51.458;7.046;2023-01-15T11:35:21;7.00;99.90
5796;DHT22;2924;51.458;7.046;2023-01-15T11:37:47;6.90;99.90
5796;DHT22;2924;51.458;7.046;2023-01-15T11:40:21;6.90;99.90
5796;DHT22;2924;51.458;7.046;2023-01-15T11:42:50;7.00;99.90
5796;DHT22;2924;51.458;7.046;2023-01-15T11:45:44;7.10;99.90
5796;DHT22;2924;51.458;7.046;2023-01-15T11:48:29;7.20;99.90
5796;DHT22;2924;51.458;7.046;2023-01-15T11:51:15;7.20;99.90
5796;DHT22;2924;51.458;7.046;2023-01-15T11:53:52;7.20;99.90
5796;DHT22;2924;51.458;7.046;2023-01-15T11:56:24;7.10;99.90
5796;DHT22;2924;51.458;7.046;2023-01-15T11:58:54;6.90;99.90
5796;DHT22;2924;51.458;7.046;2023-01-15T12:01:24;6.90;99.90
5796;DHT22;2924;51.458;7.046;2023-01-15T12:03:58;6.80;99.90
5796;DHT22;2924;51.458;7.046;2023-01-15T12:06:25;6.80;99.90
5796;DHT22;2924;51.458;7.046;2023-01-15T12:20:28;7.10;99.90
5796;DHT22;2924;51.458;7.046;2023-01-15T12:25:42;7.00;99.90
5796;DHT22;2924;51.458;7.046;2023-01-15T12:33:27;6.80;99.90
5796;DHT22;2924;51.458;7.046;2023-01-15T12:36:03;6.80;99.90
5796;DHT22;2924;51.458;7.046;2023-01-15T12:38:59;6.80;99.90
5796;DHT22;2924;51.458;7.046;2023-01-15T12:41:34;6.70;99.90
5796;DHT22;2924;51.458;7.046;2023-01-15T12:47:23;6.80;99.90
5796;DHT22;2924;51.458;7.046;2023-01-15T12:52:34;7.00;99.90
5796;DHT22;2924;51.458;7.046;2023-01-15T12:55:24;7.20;99.90
5796;DHT22;2924;51.458;7.046;2023-01-15T12:57:55;7.10;99.90
5796;DHT22;2924;51.458;7.046;2023-01-15T13:00:34;7.20;99.90
5796;DHT22;2924;51.458;7.046;2023-01-15T13:05:48;7.40;99.90
5796;DHT22;2924;51.458;7.046;2023-01-15T13:08:32;7.40;99.90
5796;DHT22;2924;51.458;7.046;2023-01-15T13:10:59;7.30;99.90
5796;DHT22;2924;51.458;7.046;2023-01-15T13:13:29;7.20;99.90
5796;DHT22;2924;51.458;7.046;2023-01-15T13:16:00;7.10;99.90
5796;DHT22;2924;51.458;7.046;2023-01-15T13:19:00;7.00;99.90
5796;DHT22;2924;51.458;7.046;2023-01-15T13:21:32;7.00;99.90
5796;DHT22;2924;51.458;7.046;2023-01-15T13:24:18;7.00;99.90
5796;DHT22;2924;51.458;7.046;2023-01-15T13:29:32;6.80;99.90
5796;DHT22;2924;51.458;7.046;2023-01-15T13:32:19;6.80;99.90
5796;DHT22;2924;51.458;7.046;2023-01-15T13:34:55;6.70;99.90
5796;DHT22;2924;51.458;7.046;2023-01-15T13:37:27;6.70;99.90
5796;DHT22;2924;51.458;7.046;2023-01-15T13:40:05;6.70;99.90
5796;DHT22;2924;51.458;7.046;2023-01-15T13:42:33;6.60;99.90
5796;DHT22;2924;51.458;7.046;2023-01-15T13:47:35;6.70;99.90
5796;DHT22;2924;51.458;7.046;2023-01-15T13:50:17;6.70;99.90
5796;DHT22;2924;51.458;7.046;2023-01-15T13:52:43;6.60;99.90
5796;DHT22;2924;51.458;7.046;2023-01-15T13:55:35;6.60;99.90
5796;DHT22;2924;51.458;7.046;2023-01-15T13:58:02;6.60;99.90
5796;DHT22;2924;51.458;7.046;2023-01-15T14:00:33;6.60;99.90
5796;DHT22;2924;51.458;7.046;2023-01-15T14:03:02;6.60;99.90
5796;DHT22;2924;51.458;7.046;2023-01-15T14:05:56;6.60;99.90
5796;DHT22;2924;51.458;7.046;2023-01-15T14:08:34;6.60;99.90
5796;DHT22;2924;51.458;7.046;2023-01-15T14:11:00;6.60;99.90
5796;DHT22;2924;51.458;7.046;2023-01-15T14:25:26;6.60;99.90
5796;DHT22;2924;51.458;7.046;2023-01-15T14:28:07;6.50;99.90
5796;DHT22;2924;51.458;7.046;2023-01-15T14:35:46;6.60;99.90
5796;DHT22;2924;51.458;7.046;2023-01-15T14:38:15;6.60;99.90
5796;DHT22;2924;51.458;7.046;2023-01-15T14:41:01;6.60;99.90
5796;DHT22;2924;51.458;7.046;2023-01-15T14:43:30;6.60;99.90
5796;DHT22;2924;51.458;7.046;2023-01-15T14:46:21;6.60;99.90
5796;DHT22;2924;51.458;7.046;2023-01-15T14:48:50;6.50;99.90
5796;DHT22;2924;51.458;7.046;2023-01-15T14:51:27;6.50;99.90
5796;DHT22;2924;51.458;7.046;2023-01-15T14:54:01;6.60;99.90
5796;DHT22;2924;51.458;7.046;2023-01-15T14:56:34;6.50;99.90
5796;DHT22;2924;51.458;7.046;2023-01-15T15:01:34;6.60;99.90
5796;DHT22;2924;51.458;7.046;2023-01-15T15:06:31;6.50;99.90
5796;DHT22;2924;51.458;7.046;2023-01-15T15:09:02;6.60;99.90
5796;DHT22;2924;51.458;7.046;2023-01-15T15:11:41;6.60;99.90
5796;DHT22;2924;51.458;7.046;2023-01-15T15:14:27;6.60;99.90
5796;DHT22;2924;51.458;7.046;2023-01-15T15:16:59;6.60;99.90
5796;DHT22;2924;51.458;7.046;2023-01-15T15:19:38;6.60;99.90
5796;DHT22;2924;51.458;7.046;2023-01-15T15:22:06;6.60;99.90
5796;DHT22;2924;51.458;7.046;2023-01-15T15:24:39;6.60;99.90
5796;DHT22;2924;51.458;7.046;2023-01-15T15:27:20;6.60;99.90
5796;DHT22;2924;51.458;7.046;2023-01-15T15:29:47;6.60;99.90
5796;DHT22;2924;51.458;7.046;2023-01-15T15:32:23;6.60;99.90
5796;DHT22;2924;51.458;7.046;2023-01-15T15:34:51;6.50;99.90
5796;DHT22;2924;51.458;7.046;2023-01-15T15:37:21;6.50;99.90
5796;DHT22;2924;51.458;7.046;2023-01-15T15:39:59;6.50;99.90
5796;DHT22;2924;51.458;7.046;2023-01-15T15:42:41;6.40;99.90
5796;DHT22;2924;51.458;7.046;2023-01-15T15:45:30;6.50;99.90
5796;DHT22;2924;51.458;7.046;2023-01-15T15:48:29;6.50;99.90
5796;DHT22;2924;51.458;7.046;2023-01-15T15:54:22;6.50;99.90
5796;DHT22;2924;51.458;7.046;2023-01-15T15:57:07;6.40;99.90
5796;DHT22;2924;51.458;7.046;2023-01-15T15:59:47;6.40;99.90
5796;DHT22;2924;51.458;7.046;2023-01-15T16:04:50;6.30;99.90
5796;DHT22;2924;51.458;7.046;2023-01-15T16:07:37;6.30;99.90
5796;DHT22;2924;51.458;7.046;2023-01-15T16:10:12;6.30;99.90
5796;DHT22;2924;51.458;7.046;2023-01-15T16:12:43;6.20;99.90
5796;DHT22;2924;51.458;7.046;2023-01-15T16:15:15;6.30;99.90
5796;DHT22;2924;51.458;7.046;2023-01-15T16:17:42;6.20;99.90
5796;DHT22;2924;51.458;7.046;2023-01-15T16:20:17;6.20;99.90
5796;DHT22;2924;51.458;7.046;2023-01-15T16:23:03;6.20;99.90
5796;DHT22;2924;51.458;7.046;2023-01-15T16:27:59;6.30;99.90
5796;DHT22;2924;51.458;7.046;2023-01-15T16:30:24;6.20;99.90
5796;DHT22;2924;51.458;7.046;2023-01-15T16:32:51;6.20;99.90
5796;DHT22;2924;51.458;7.046;2023-01-15T16:35:23;6.20;99.90
5796;DHT22;2924;51.458;7.046;2023-01-15T16:37:51;6.20;99.90
5796;DHT22;2924;51.458;7.046;2023-01-15T16:45:35;6.20;99.90
5796;DHT22;2924;51.458;7.046;2023-01-15T16:50:34;6.20;99.90
5796;DHT22;2924;51.458;7.046;2023-01-15T16:53:02;6.20;99.90
5796;DHT22;2924;51.458;7.046;2023-01-15T16:58:20;6.20;99.90
5796;DHT22;2924;51.458;7.046;2023-01-15T17:00:53;6.20;99.90
5796;DHT22;2924;51.458;7.046;2023-01-15T17:03:22;6.20;99.90
5796;DHT22;2924;51.458;7.046;2023-01-15T17:05:56;6.20;99.90
5796;DHT22;2924;51.458;7.046;2023-01-15T17:08:36;6.20;99.90
5796;DHT22;2924;51.458;7.046;2023-01-15T17:11:08;6.20;99.90
5796;DHT22;2924;51.458;7.046;2023-01-15T17:13:41;6.20;99.90
5796;DHT22;2924;51.458;7.046;2023-01-15T17:16:18;6.30;99.90
5796;DHT22;2924;51.458;7.046;2023-01-15T17:18:46;6.20;99.90
5796;DHT22;2924;51.458;7.046;2023-01-15T17:21:20;6.20;99.90
5796;DHT22;2924;51.458;7.046;2023-01-15T17:23:48;6.20;99.90
5796;DHT22;2924;51.458;7.046;2023-01-15T17:26:17;6.20;99.90
5796;DHT22;2924;51.458;7.046;2023-01-15T17:28:44;6.10;99.90
5796;DHT22;2924;51.458;7.046;2023-01-15T17:31:22;6.10;99.90
5796;DHT22;2924;51.458;7.046;2023-01-15T17:33:49;6.20;99.90
5796;DHT22;2924;51.458;7.046;2023-01-15T17:36:16;6.20;99.90
5796;DHT22;2924;51.458;7.046;2023-01-15T17:38:42;6.20;99.90
5796;DHT22;2924;51.458;7.046;2023-01-15T17:41:12;6.20;99.90
5796;DHT22;2924;51.458;7.046;2023-01-15T17:43:38;6.20;99.90
5796;DHT22;2924;51.458;7.046;2023-01-15T17:46:05;6.20;99.90
5796;DHT22;2924;51.458;7.046;2023-01-15T17:48:30;6.20;99.90
5796;DHT22;2924;51.458;7.046;2023-01-15T17:51:04;6.10;99.90
5796;DHT22;2924;51.458;7.046;2023-01-15T17:53:31;6.10;99.90
5796;DHT22;2924;51.458;7.046;2023-01-15T17:55:57;6.10;99.90
5796;DHT22;2924;51.458;7.046;2023-01-15T17:58:42;6.10;99.90
5796;DHT22;2924;51.458;7.046;2023-01-15T18:01:27;6.20;99.90
5796;DHT22;2924;51.458;7.046;2023-01-15T18:04:28;6.10;99.90
5796;DHT22;2924;51.458;7.046;2023-01-15T18:07:15;6.10;99.90
5796;DHT22;2924;51.458;7.046;2023-01-15T18:09:42;6.10;99.90
5796;DHT22;2924;51.458;7.046;2023-01-15T18:12:08;6.10;99.90
5796;DHT22;2924;51.458;7.046;2023-01-15T18:14:34;6.10;99.90
5796;DHT22;2924;51.458;7.046;2023-01-15T18:17:01;6.20;99.90
5796;DHT22;2924;51.458;7.046;2023-01-15T18:19:27;6.10;99.90
5796;DHT22;2924;51.458;7.046;2023-01-15T18:21:52;6.10;99.90
5796;DHT22;2924;51.458;7.046;2023-01-15T18:24:18;6.10;99.90
5796;DHT22;2924;51.458;7.046;2023-01-15T18:26:47;6.10;99.90
5796;DHT22;2924;51.458;7.046;2023-01-15T18:29:13;6.10;99.90
5796;DHT22;2924;51.458;7.046;2023-01-15T18:31:39;6.00;99.90
5796;DHT22;2924;51.458;7.046;2023-01-15T18:34:05;6.00;99.90
5796;DHT22;2924;51.458;7.046;2023-01-15T18:36:30;6.00;99.90
5796;DHT22;2924;51.458;7.046;2023-01-15T18:38:56;6.10;99.90
5796;DHT22;2924;51.458;7.046;2023-01-15T18:41:27;6.10;99.90